Time;durP1;ratioP1;P1;durP2;ratioP2;P2;SDS_P1;SDS_P2;PMS_P1;PMS_P2;Temp;Humidity;BMP_temperature;BMP_pressure;BME280_temperature;BME280_humidity;BME280_pressure;Samples;Min_cycle;Max_cycle;Signal;HPM_P1;HPM_P2
2022/10/09 00:01:15;;;;;;;23.40;15.50;;;;;;;19.23;100.00;100815.66;4975880;28;20027;-86
2022/10/09 00:03:43;;;;;;;23.30;15.55;;;;;;;19.12;100.00;100813.63;4981525;28;20064;-88
2022/10/09 00:06:12;;;;;;;24.70;15.10;;;;;;;19.11;100.00;100818.19;4980599;28;20083;-90
2022/10/09 00:08:42;;;;;;;22.77;15.90;;;;;;;18.89;100.00;100825.66;4980965;28;20048;-83
2022/10/09 00:11:14;;;;;;;26.42;15.90;;;;;;;18.85;100.00;100816.38;4979515;28;20031;-85
2022/10/09 00:13:40;;;;;;;27.25;17.38;;;;;;;18.77;100.00;100827.31;4980978;28;20039;-87
2022/10/09 00:16:08;;;;;;;25.30;16.58;;;;;;;18.58;100.00;100822.78;4969826;28;20055;-86
2022/10/09 00:18:35;;;;;;;30.75;16.20;;;;;;;18.50;100.00;100825.66;4959863;28;20437;-88
2022/10/09 00:21:01;;;;;;;25.20;15.45;;;;;;;18.54;100.00;100824.22;4959343;28;20099;-88
2022/10/09 00:23:27;;;;;;;25.52;16.27;;;;;;;18.56;100.00;100831.03;4959124;29;20460;-88
2022/10/09 00:25:55;;;;;;;25.67;15.95;;;;;;;18.55;100.00;100828.56;4958134;28;20098;-88
2022/10/09 00:28:23;;;;;;;24.80;15.52;;;;;;;18.73;100.00;100822.56;4960171;28;20043;-88
2022/10/09 00:30:49;;;;;;;25.17;15.77;;;;;;;18.71;100.00;100830.84;4960346;28;20449;-88
2022/10/09 00:33:14;;;;;;;19.17;14.93;;;;;;;18.71;100.00;100830.84;4961918;28;20042;-88
2022/10/09 00:35:40;;;;;;;22.27;16.15;;;;;;;18.64;100.00;100824.66;4958572;28;20035;-89
2022/10/09 00:38:06;;;;;;;25.77;15.80;;;;;;;18.48;100.00;100825.03;4957766;28;20388;-87
2022/10/09 00:40:32;;;;;;;25.63;15.40;;;;;;;18.52;100.00;100829.00;4960024;28;20083;-88
2022/10/09 00:43:15;;;;;;;24.15;15.27;;;;;;;18.63;100.00;100835.59;4969778;28;20086;-88
2022/10/09 00:45:48;;;;;;;23.45;14.80;;;;;;;18.76;100.00;100831.03;4963899;28;20055;-89
2022/10/09 00:48:14;;;;;;;22.92;15.95;;;;;;;18.52;100.00;100835.19;4970933;28;20042;-87
2022/10/09 00:50:44;;;;;;;23.85;15.20;;;;;;;18.38;100.00;100835.34;4979356;28;20473;-85
2022/10/09 00:53:14;;;;;;;24.58;15.85;;;;;;;18.44;100.00;100821.94;4975736;28;20016;-90
2022/10/09 00:55:42;;;;;;;23.35;15.15;;;;;;;18.62;100.00;100829.41;4975083;28;20086;-90
2022/10/09 00:58:08;;;;;;;24.75;14.35;;;;;;;18.82;100.00;100824.84;4957870;28;20023;-89
2022/10/09 01:00:37;;;;;;;20.52;14.40;;;;;;;19.00;100.00;100827.69;5019596;22;20502;-89
2022/10/09 01:03:03;;;;;;;22.38;14.95;;;;;;;19.01;100.00;100818.63;5017596;28;20069;-88
2022/10/09 01:05:42;;;;;;;22.02;14.65;;;;;;;19.02;100.00;100814.06;5015099;28;20125;-85
2022/10/09 01:08:50;;;;;;;23.38;15.00;;;;;;;19.12;100.00;100825.22;5016695;28;20033;-85
2022/10/09 01:11:15;;;;;;;22.73;14.80;;;;;;;18.89;100.00;100812.22;4968951;28;20050;-87
2022/10/09 01:13:49;;;;;;;25.20;15.15;;;;;;;18.74;100.00;100814.31;5017161;28;20156;-88
2022/10/09 01:16:20;;;;;;;23.83;15.88;;;;;;;18.69;100.00;100813.28;5016903;28;20041;-86
2022/10/09 01:18:57;;;;;;;23.85;16.00;;;;;;;18.47;100.00;100809.94;5014701;28;20057;-86
2022/10/09 01:21:40;;;;;;;24.35;16.38;;;;;;;18.46;100.00;100813.69;5014673;28;20041;-85
2022/10/09 01:24:29;;;;;;;28.40;16.90;;;;;;;18.36;100.00;100807.91;5015417;28;20041;-86
2022/10/09 01:27:12;;;;;;;29.70;17.38;;;;;;;18.35;100.00;100817.81;5016230;28;20435;-88
2022/10/09 01:29:43;;;;;;;23.75;16.48;;;;;;;18.38;100.00;100806.66;5016088;28;20049;-85
2022/10/09 01:32:16;;;;;;;29.23;16.65;;;;;;;18.49;100.00;100808.69;5021478;28;20037;-89
2022/10/09 01:34:44;;;;;;;23.52;16.52;;;;;;;18.70;100.00;100813.06;5021903;28;20042;-89
2022/10/09 01:37:12;;;;;;;27.48;18.05;;;;;;;18.73;100.00;100811.81;5021802;28;20022;-88
2022/10/09 01:39:40;;;;;;;27.20;17.33;;;;;;;18.59;100.00;100816.41;5020487;28;20041;-88
2022/10/09 01:42:06;;;;;;;28.30;16.58;;;;;;;18.56;100.00;100814.09;5011761;28;20037;-88
2022/10/09 01:44:33;;;;;;;26.05;16.25;;;;;;;18.61;100.00;100813.50;5014308;28;20040;-87
2022/10/09 01:46:59;;;;;;;24.58;16.05;;;;;;;18.51;100.00;100809.38;5014856;28;20129;-87
2022/10/09 01:49:38;;;;;;;25.92;16.10;;;;;;;18.68;100.00;100811.63;5014198;28;20392;-86
2022/10/09 01:52:25;;;;;;;27.20;15.68;;;;;;;18.86;100.00;100809.13;5015025;28;20669;-89
2022/10/09 01:55:12;;;;;;;26.75;16.85;;;;;;;18.71;100.00;100812.03;5014069;28;20427;-88
2022/10/09 01:57:49;;;;;;;26.48;16.00;;;;;;;18.57;100.00;100810.38;5015455;28;20117;-88
2022/10/09 02:00:15;;;;;;;22.35;15.43;;;;;;;18.77;100.00;100800.47;5014234;28;20037;-89
2022/10/09 02:02:42;;;;;;;22.95;15.63;;;;;;;18.71;100.00;100806.69;5014340;28;20045;-88
2022/10/09 02:05:20;;;;;;;23.85;15.23;;;;;;;18.69;100.00;100806.06;5014478;28;20475;-90
2022/10/09 02:07:45;;;;;;;26.13;16.13;;;;;;;18.65;100.00;100810.19;5014684;28;20038;-89
2022/10/09 02:10:12;;;;;;;26.02;16.45;;;;;;;18.71;100.00;100803.16;5023747;28;20043;-88
2022/10/09 02:12:48;;;;;;;27.42;16.70;;;;;;;18.62;100.00;100801.72;5023104;28;20022;-85
2022/10/09 02:15:14;;;;;;;26.40;16.30;;;;;;;18.40;100.00;100803.75;5034191;28;20078;-90
2022/10/09 02:17:44;;;;;;;26.50;17.17;;;;;;;18.36;100.00;100797.16;5018325;28;20057;-89
2022/10/09 02:20:22;;;;;;;28.15;16.08;;;;;;;18.19;100.00;100801.28;5014646;28;20034;-89
2022/10/09 02:22:48;;;;;;;23.10;14.85;;;;;;;18.16;100.00;100807.06;5014336;28;20052;-88
2022/10/09 02:25:15;;;;;;;24.75;15.68;;;;;;;18.29;100.00;100802.53;5014178;28;20029;-89
2022/10/09 02:27:41;;;;;;;23.88;16.05;;;;;;;18.31;100.00;100810.34;5014939;28;20041;-88
2022/10/09 02:30:09;;;;;;;22.45;15.48;;;;;;;18.37;100.00;100804.16;5013476;28;20045;-87
2022/10/09 02:32:35;;;;;;;23.17;15.77;;;;;;;18.50;100.00;100802.34;5018227;28;20372;-89
2022/10/09 02:35:01;;;;;;;23.63;14.35;;;;;;;18.49;100.00;100803.34;5017819;28;20087;-91
2022/10/09 02:37:26;;;;;;;27.00;16.70;;;;;;;18.34;100.00;100805.41;5017908;28;20030;-89
2022/10/09 02:39:52;;;;;;;24.17;14.68;;;;;;;18.42;100.00;100807.06;5016750;28;20131;-88
2022/10/09 02:42:18;;;;;;;23.20;15.85;;;;;;;18.45;100.00;100796.75;5020013;28;20116;-88
2022/10/09 02:44:43;;;;;;;22.92;16.83;;;;;;;18.30;100.00;100809.53;5017116;28;20562;-89
2022/10/09 02:47:10;;;;;;;27.27;17.65;;;;;;;18.38;100.00;100806.66;5018647;28;20069;-89
2022/10/09 02:49:39;;;;;;;23.00;16.55;;;;;;;18.34;100.00;100813.47;5017988;28;20026;-89
2022/10/09 02:52:04;;;;;;;26.67;16.38;;;;;;;18.35;100.00;100808.91;5017602;28;20113;-89
2022/10/09 02:54:30;;;;;;;22.75;16.70;;;;;;;18.41;100.00;100816.16;5017930;28;20040;-88
2022/10/09 02:56:55;;;;;;;24.08;16.42;;;;;;;18.46;100.00;100819.06;5018588;28;20111;-89
2022/10/09 02:59:21;;;;;;;27.40;17.33;;;;;;;18.51;100.00;100820.09;5017958;28;20127;-89
2022/10/09 03:01:47;;;;;;;27.88;18.60;;;;;;;18.41;100.00;100824.19;5017729;28;20130;-88
2022/10/09 03:04:13;;;;;;;36.42;21.88;;;;;;;18.39;100.00;100823.59;5018375;28;20073;-90
2022/10/09 03:06:39;;;;;;;34.05;22.60;;;;;;;18.18;100.00;100829.13;5016498;28;20128;-88
2022/10/09 03:09:04;;;;;;;37.10;23.77;;;;;;;17.99;100.00;100831.56;5017806;28;20073;-87
2022/10/09 03:11:30;;;;;;;31.63;22.30;;;;;;;18.11;100.00;100826.44;5015910;28;20032;-87
2022/10/09 03:13:55;;;;;;;33.78;22.63;;;;;;;18.18;100.00;100837.16;5015962;28;20100;-88
2022/10/09 03:16:24;;;;;;;30.30;20.35;;;;;;;18.01;100.00;100831.34;5017551;28;20037;-87
2022/10/09 03:18:50;;;;;;;28.83;19.35;;;;;;;17.86;100.00;100828.88;5015991;28;20038;-90
2022/10/09 03:21:19;;;;;;;26.98;18.40;;;;;;;17.54;100.00;100830.34;5017522;28;20049;-87
2022/10/09 03:23:45;;;;;;;23.15;15.88;;;;;;;17.84;100.00;100827.38;5016003;28;20454;-87
2022/10/09 03:26:17;;;;;;;28.45;16.70;;;;;;;17.51;100.00;100829.91;5017052;28;20080;-89
2022/10/09 03:28:46;;;;;;;22.60;15.07;;;;;;;17.33;100.00;100832.31;5015872;28;20041;-88
2022/10/09 03:31:13;;;;;;;24.27;16.30;;;;;;;17.08;100.00;100826.59;5017313;28;20041;-86
2022/10/09 03:33:38;;;;;;;22.30;15.02;;;;;;;17.12;100.00;100825.19;5017551;28;20045;-90
2022/10/09 03:36:04;;;;;;;23.55;15.27;;;;;;;17.18;100.00;100831.59;5034365;28;20026;-89
2022/10/09 03:38:30;;;;;;;24.02;14.85;;;;;;;17.23;100.00;100831.84;5027658;28;20041;-89
2022/10/09 03:41:00;;;;;;;23.95;16.30;;;;;;;17.07;100.00;100829.50;5016189;28;20037;-89
2022/10/09 03:43:27;;;;;;;25.27;15.80;;;;;;;16.93;100.00;100832.09;5016637;28;20108;-87
2022/10/09 03:45:53;;;;;;;26.38;14.80;;;;;;;17.10;100.00;100831.78;5014522;28;20100;-86
2022/10/09 03:48:19;;;;;;;23.75;14.27;;;;;;;16.88;100.00;100834.50;5016092;28;20065;-86
2022/10/09 03:50:45;;;;;;;21.05;15.05;;;;;;;16.98;100.00;100835.00;5016156;28;20472;-85
2022/10/09 03:53:12;;;;;;;21.77;15.18;;;;;;;16.87;100.00;100838.19;5014546;28;20044;-86
2022/10/09 03:55:37;;;;;;;23.45;15.32;;;;;;;16.88;100.00;100834.50;5015616;28;20036;-88
2022/10/09 03:58:03;;;;;;;23.48;15.20;;;;;;;16.94;100.00;100838.25;5015876;28;20469;-86
2022/10/09 04:00:29;;;;;;;21.67;14.90;;;;;;;16.76;100.00;100837.91;5015667;28;20034;-86
2022/10/09 04:02:55;;;;;;;22.27;16.27;;;;;;;16.79;100.00;100835.69;5015913;28;20065;-87
2022/10/09 04:05:21;;;;;;;24.48;15.02;;;;;;;16.50;100.00;100831.28;5015891;28;20025;-85
2022/10/09 04:07:49;;;;;;;21.17;15.90;;;;;;;16.46;100.00;100834.56;5015765;28;20467;-86
2022/10/09 04:10:18;;;;;;;23.15;16.00;;;;;;;16.50;100.00;100827.81;5018493;28;20099;-87
2022/10/09 04:12:46;;;;;;;25.75;15.55;;;;;;;16.44;100.00;100831.22;5014445;28;20034;-86
2022/10/09 04:15:12;;;;;;;22.90;16.48;;;;;;;16.69;100.00;100834.34;5015863;28;20062;-85
2022/10/09 04:17:38;;;;;;;21.50;16.05;;;;;;;16.51;100.00;100827.59;5015889;28;20064;-88
2022/10/09 04:20:03;;;;;;;23.95;15.88;;;;;;;16.48;100.00;100829.81;5014516;28;20041;-89
2022/10/09 04:22:29;;;;;;;19.95;15.23;;;;;;;16.64;100.00;100829.56;5015853;28;20038;-87
2022/10/09 04:24:54;;;;;;;27.48;14.50;;;;;;;16.58;100.00;100827.69;5014215;28;20068;-87
2022/10/09 04:27:20;;;;;;;26.25;13.93;;;;;;;16.68;100.00;100833.53;5015794;28;20077;-87
2022/10/09 04:29:45;;;;;;;20.00;13.07;;;;;;;16.52;100.00;100829.25;5015469;28;20069;-87
2022/10/09 04:32:11;;;;;;;18.50;13.52;;;;;;;16.47;100.00;100830.88;5015935;28;20081;-86
2022/10/09 04:34:36;;;;;;;20.48;13.30;;;;;;;16.42;100.00;100844.81;5019876;28;20097;-86
2022/10/09 04:37:02;;;;;;;22.20;13.95;;;;;;;16.21;100.00;100841.28;5033789;28;20057;-87
2022/10/09 04:40:19;;;;;;;20.30;13.35;;;;;;;16.26;100.00;100838.91;5032634;28;20034;-86
2022/10/09 04:42:44;;;;;;;21.48;13.10;;;;;;;16.10;100.00;100839.97;5038994;28;20068;-88
2022/10/09 04:45:10;;;;;;;19.95;13.50;;;;;;;16.05;100.00;100847.72;5039371;28;20038;-87
2022/10/09 04:47:35;;;;;;;22.45;12.48;;;;;;;16.07;100.00;100844.88;5039296;28;20064;-86
2022/10/09 04:50:01;;;;;;;23.75;13.80;;;;;;;16.01;100.00;100847.28;5038483;28;20034;-86
2022/10/09 04:52:27;;;;;;;23.92;14.40;;;;;;;16.01;100.00;100851.78;5038984;28;20030;-86
2022/10/09 04:54:52;;;;;;;19.35;14.05;;;;;;;15.95;100.00;100839.19;5021260;28;20038;-86
2022/10/09 04:57:18;;;;;;;17.85;12.95;;;;;;;15.89;100.00;100851.47;5019730;28;20503;-86
2022/10/09 04:59:43;;;;;;;20.35;14.18;;;;;;;15.91;100.00;100844.06;5030427;28;20048;-86
2022/10/09 05:02:09;;;;;;;24.98;14.88;;;;;;;15.89;100.00;100843.44;5018833;28;20125;-86
2022/10/09 05:04:34;;;;;;;22.13;14.13;;;;;;;15.88;100.00;100854.31;5013747;28;20116;-86
2022/10/09 05:07:01;;;;;;;27.98;14.27;;;;;;;15.86;100.00;100856.34;5014905;28;20513;-86
2022/10/09 05:09:26;;;;;;;22.77;15.18;;;;;;;15.83;100.00;100852.22;5023659;28;20009;-85
2022/10/09 05:11:52;;;;;;;23.55;15.00;;;;;;;15.88;100.00;100857.81;5017022;28;20034;-86
2022/10/09 05:14:20;;;;;;;24.52;15.90;;;;;;;15.93;100.00;100855.44;5014767;28;20085;-85
2022/10/09 05:16:49;;;;;;;28.85;17.05;;;;;;;16.17;100.00;100862.28;5014890;28;20061;-85
2022/10/09 05:19:15;;;;;;;25.08;15.18;;;;;;;16.24;100.00;100862.34;5014396;28;20034;-85
2022/10/09 05:21:40;;;;;;;26.58;16.40;;;;;;;16.13;100.00;100863.66;5016385;28;20484;-87
2022/10/09 05:24:06;;;;;;;25.75;17.10;;;;;;;16.21;100.00;100862.69;5014376;28;20033;-85
2022/10/09 05:26:31;;;;;;;42.38;22.02;;;;;;;16.24;100.00;100860.47;5015454;28;20391;-86
2022/10/09 05:28:57;;;;;;;36.97;25.08;;;;;;;16.20;100.00;100856.53;5014400;28;20038;-86
2022/10/09 05:31:28;;;;;;;44.55;28.38;;;;;;;16.32;100.00;100855.00;5016480;28;20442;-91
2022/10/09 05:33:55;;;;;;;46.80;29.15;;;;;;;16.23;100.00;100866.03;5015929;28;20089;-87
2022/10/09 05:36:21;;;;;;;56.88;31.92;;;;;;;16.25;100.00;100859.47;5015339;28;20026;-88
2022/10/09 05:38:47;;;;;;;51.35;32.20;;;;;;;16.20;100.00;100863.72;5014498;28;20041;-89
2022/10/09 05:44:11;;;;;;;55.90;36.95;;;;;;;16.08;100.00;100873.25;5187743;23;20055;-88
2022/10/09 06:11:41;;;;;;;83.03;52.08;;;;;;;16.16;100.00;100886.50;5014306;23;20054;-89
2022/10/09 06:15:07;;;;;;;86.53;52.47;;;;;;;16.28;100.00;100901.03;4988457;28;20033;-87
2022/10/09 09:34:40;;;;;;;95.80;48.47;;;;;;;19.31;100.00;101022.38;5136834;23;20451;-86
2022/10/09 09:37:10;;;;;;;88.97;47.22;;;;;;;19.31;100.00;101025.06;4956325;28;20086;-86
2022/10/09 09:39:44;;;;;;;89.25;46.47;;;;;;;19.54;100.00;101014.75;4951943;28;20110;-85
2022/10/09 09:42:15;;;;;;;85.25;46.53;;;;;;;19.71;100.00;101018.66;4984014;28;20049;-86
2022/10/09 09:45:10;;;;;;;91.78;48.65;;;;;;;19.46;100.00;101034.59;4967760;28;20398;-84
2022/10/09 09:47:42;;;;;;;87.63;47.05;;;;;;;19.48;100.00;101023.66;4960581;28;20034;-85
2022/10/09 09:50:07;;;;;;;93.28;47.05;;;;;;;19.39;100.00;101025.69;4975948;28;20043;-86
2022/10/09 09:52:45;;;;;;;86.35;45.50;;;;;;;19.46;100.00;101015.78;4964126;28;20037;-86
2022/10/09 09:55:27;;;;;;;86.03;45.13;;;;;;;19.68;100.00;101015.56;4984274;28;20039;-87
2022/10/09 17:11:17;;;;;;;15.65;9.40;;;;;;;20.10;100.00;100814.03;5113792;23;20078;-88
2022/10/09 17:13:44;;;;;;;17.48;9.07;;;;;;;20.10;100.00;100819.44;4978408;28;20031;-85
2022/10/09 17:16:13;;;;;;;15.23;9.07;;;;;;;19.87;100.00;100835.28;4979772;28;20539;-85
2022/10/09 17:18:40;;;;;;;18.15;8.52;;;;;;;20.04;100.00;100836.44;4975699;28;20358;-85
2022/10/09 17:21:10;;;;;;;14.82;8.55;;;;;;;20.15;100.00;100831.41;4974978;28;20062;-86
2022/10/09 17:23:36;;;;;;;21.42;8.93;;;;;;;20.11;100.00;100837.22;4973772;28;20047;-84
2022/10/09 17:26:14;;;;;;;14.27;7.57;;;;;;;20.15;100.00;100832.22;4974847;28;20186;-85
2022/10/09 17:28:40;;;;;;;16.63;8.35;;;;;;;20.07;100.00;100840.56;4974716;28;20035;-85
2022/10/09 17:31:09;;;;;;;16.55;7.90;;;;;;;19.99;100.00;100838.94;4974924;28;20071;-86
2022/10/09 17:33:39;;;;;;;16.95;7.32;;;;;;;19.86;100.00;100841.69;4975608;28;20436;-87
2022/10/09 17:36:06;;;;;;;23.05;8.57;;;;;;;19.91;100.00;100855.34;4980112;28;20070;-86
2022/10/09 17:38:32;;;;;;;18.25;8.13;;;;;;;19.83;100.00;100850.19;4974750;28;20034;-87
2022/10/09 17:40:57;;;;;;;18.38;7.38;;;;;;;19.80;100.00;100850.63;4957682;28;20037;-83
2022/10/09 17:43:23;;;;;;;16.23;7.50;;;;;;;19.92;100.00;100854.28;4974431;28;20058;-85
2022/10/09 17:45:48;;;;;;;13.20;7.57;;;;;;;20.02;100.00;100860.03;4974622;28;20090;-85
2022/10/09 17:48:14;;;;;;;19.85;7.28;;;;;;;19.94;100.00;100863.00;4973506;28;20066;-87
2022/10/09 17:50:48;;;;;;;12.95;7.30;;;;;;;19.86;100.00;100868.59;4977721;28;20045;-85
2022/10/09 17:53:14;;;;;;;13.48;7.20;;;;;;;19.79;100.00;100870.50;4974693;28;20035;-88
2022/10/09 17:55:40;;;;;;;17.40;7.18;;;;;;;19.62;100.00;100872.00;4974969;28;20043;-88
2022/10/09 17:58:06;;;;;;;12.63;7.65;;;;;;;19.65;100.00;100871.59;4974718;28;20062;-86
2022/10/09 18:00:31;;;;;;;16.15;7.25;;;;;;;19.48;100.00;100867.72;4975446;28;20338;-85
2022/10/09 18:02:57;;;;;;;17.48;7.80;;;;;;;19.47;100.00;100876.81;4974519;28;20386;-85
2022/10/09 18:05:22;;;;;;;19.30;7.90;;;;;;;19.48;100.00;100878.47;4965165;28;20066;-86
2022/10/09 18:07:48;;;;;;;14.50;8.40;;;;;;;19.28;100.00;100885.75;4973500;28;20133;-88
2022/10/09 18:10:15;;;;;;;18.02;8.70;;;;;;;19.32;100.00;100889.66;4974147;28;20035;-83
2022/10/09 18:12:42;;;;;;;20.05;9.05;;;;;;;19.16;100.00;100882.84;4974751;28;20051;-85
2022/10/09 18:15:09;;;;;;;23.77;9.40;;;;;;;19.10;100.00;100884.53;4974830;28;20484;-85
2022/10/09 18:17:36;;;;;;;18.85;10.27;;;;;;;18.99;100.00;100889.72;4984377;28;20075;-84
2022/10/09 18:20:01;;;;;;;21.02;10.57;;;;;;;19.03;100.00;100891.75;4984016;28;20031;-82
2022/10/09 18:22:27;;;;;;;27.50;9.82;;;;;;;18.88;100.00;100899.22;4997975;28;20027;-87
2022/10/09 18:24:52;;;;;;;20.67;9.65;;;;;;;18.75;100.00;100893.84;4992922;28;20428;-87
2022/10/09 18:27:19;;;;;;;22.10;10.98;;;;;;;18.70;100.00;100896.31;4974222;28;20027;-86
2022/10/09 18:29:44;;;;;;;25.92;11.02;;;;;;;18.62;100.00;100907.25;4974179;28;20046;-86
2022/10/09 18:32:10;;;;;;;23.90;11.38;;;;;;;18.56;100.00;100897.31;4974690;28;20035;-86
2022/10/09 18:34:35;;;;;;;19.52;11.60;;;;;;;18.54;100.00;100902.91;4975115;28;20141;-86
2022/10/09 18:37:01;;;;;;;15.02;10.93;;;;;;;18.42;100.00;100892.94;4977386;28;20038;-85
2022/10/09 18:39:27;;;;;;;20.92;11.60;;;;;;;18.31;100.00;100894.38;4975245;28;20472;-87
2022/10/09 18:41:54;;;;;;;19.20;12.65;;;;;;;18.25;100.00;100900.56;4966847;28;20046;-87
2022/10/09 18:44:20;;;;;;;24.15;13.52;;;;;;;18.24;100.00;100908.78;4969962;28;20082;-88
2022/10/09 18:46:57;;;;;;;23.98;13.55;;;;;;;18.10;100.00;100904.44;4972627;28;20035;-89
2022/10/09 18:49:28;;;;;;;23.95;14.13;;;;;;;18.08;100.00;100896.59;4955866;28;20038;-86
2022/10/09 18:51:55;;;;;;;25.65;15.65;;;;;;;17.98;100.00;100902.31;4976520;28;20453;-90
2022/10/09 18:54:23;;;;;;;25.38;14.75;;;;;;;17.93;100.00;100910.13;4973644;28;20485;-87
2022/10/09 18:56:49;;;;;;;21.80;14.75;;;;;;;17.87;100.00;100904.75;4974005;28;20358;-90
2022/10/09 18:59:18;;;;;;;24.58;15.10;;;;;;;17.84;100.00;100905.97;4972518;28;20050;-88
2022/10/09 19:01:43;;;;;;;29.08;16.02;;;;;;;17.77;100.00;100905.13;4974009;28;20442;-88
2022/10/09 19:04:09;;;;;;;25.73;16.02;;;;;;;17.73;100.00;100908.41;4974312;28;20109;-91
2022/10/09 19:06:35;;;;;;;22.55;16.40;;;;;;;17.75;100.00;100906.34;4970588;28;20063;-88
2022/10/09 19:09:00;;;;;;;26.48;15.98;;;;;;;17.75;100.00;100909.88;4978485;28;20035;-86
2022/10/09 19:11:28;;;;;;;22.45;16.10;;;;;;;17.74;100.00;100905.53;4972941;28;20043;-88
2022/10/09 19:13:54;;;;;;;26.67;16.70;;;;;;;17.63;100.00;100903.41;4975604;28;20484;-89
2022/10/09 19:16:21;;;;;;;28.60;16.33;;;;;;;17.69;100.00;100905.31;4977842;28;20089;-86
2022/10/09 19:18:46;;;;;;;28.08;16.73;;;;;;;17.63;100.00;100902.59;4983438;28;20034;-90
2022/10/09 19:21:14;;;;;;;24.13;16.13;;;;;;;17.76;100.00;100900.81;4984474;28;20031;-90
2022/10/09 19:23:42;;;;;;;24.95;16.40;;;;;;;17.70;100.00;100903.47;4987885;28;20067;-91
2022/10/09 19:26:11;;;;;;;30.02;17.15;;;;;;;17.66;100.00;100903.03;4984666;28;20035;-89
2022/10/09 19:28:39;;;;;;;32.58;17.50;;;;;;;17.65;100.00;100900.53;4985731;28;20058;-92
2022/10/09 19:31:09;;;;;;;26.15;16.75;;;;;;;17.69;100.00;100907.97;4983200;28;20030;-91
2022/10/09 19:33:38;;;;;;;28.67;16.90;;;;;;;17.69;100.00;100907.97;4984500;28;20039;-92
2022/10/09 19:36:05;;;;;;;31.15;16.65;;;;;;;17.66;100.00;100903.03;4984185;28;20039;-90
2022/10/09 19:38:31;;;;;;;28.73;17.30;;;;;;;17.66;100.00;100896.84;4981186;28;20035;-89
2022/10/09 19:41:12;;;;;;;27.55;17.80;;;;;;;17.62;100.00;100896.41;4983414;28;20046;-88
2022/10/09 19:43:45;;;;;;;25.30;17.58;;;;;;;17.69;100.00;100901.78;4989765;28;20066;-88
2022/10/09 19:46:16;;;;;;;31.38;18.65;;;;;;;17.67;100.00;100896.63;4984788;28;20087;-88
2022/10/09 19:48:42;;;;;;;27.90;18.48;;;;;;;17.63;100.00;100898.06;4983077;28;20038;-88
2022/10/09 19:51:11;;;;;;;29.55;18.33;;;;;;;17.64;100.00;100913.09;4977853;28;20034;-88
2022/10/09 19:53:37;;;;;;;30.85;19.50;;;;;;;17.56;100.00;100903.34;4978879;28;20039;-89
2022/10/09 19:56:18;;;;;;;40.13;20.35;;;;;;;17.51;100.00;100897.75;4980844;28;20031;-89
2022/10/09 19:58:49;;;;;;;32.53;19.27;;;;;;;17.51;100.00;100899.59;4978585;28;20051;-91
2022/10/09 20:01:19;;;;;;;34.13;20.48;;;;;;;17.50;100.00;100904.13;4987717;28;20042;-91
2022/10/09 20:04:06;;;;;;;34.30;19.35;;;;;;;17.60;100.00;100909.16;4988428;28;20034;-86
2022/10/09 20:06:39;;;;;;;37.58;20.10;;;;;;;17.62;100.00;100912.47;4995146;28;20035;-91
2022/10/09 20:09:06;;;;;;;27.83;18.90;;;;;;;17.63;100.00;100898.06;4972432;28;20039;-91
2022/10/09 20:11:35;;;;;;;26.40;17.45;;;;;;;17.65;100.00;100911.25;4987558;28;20041;-86
2022/10/09 20:14:02;;;;;;;23.02;17.20;;;;;;;17.86;100.00;100914.66;4980984;28;20039;-90
2022/10/09 20:16:30;;;;;;;21.23;15.98;;;;;;;18.10;100.00;100913.28;4980556;28;20489;-89
2022/10/09 20:19:03;;;;;;;25.98;16.40;;;;;;;18.03;100.00;100915.94;4978767;28;20034;-87
2022/10/09 20:21:32;;;;;;;24.15;16.48;;;;;;;17.97;100.00;100922.13;4985511;28;20051;-89
2022/10/09 20:23:59;;;;;;;23.65;16.15;;;;;;;17.86;100.00;100914.66;4979226;28;20114;-91
2022/10/09 20:26:26;;;;;;;24.13;16.23;;;;;;;17.80;100.00;100915.44;4977688;28;20049;-88
2022/10/09 20:28:52;;;;;;;23.48;17.08;;;;;;;17.77;100.00;100915.84;4977304;28;20460;-90
2022/10/09 20:31:21;;;;;;;23.05;17.42;;;;;;;17.76;100.00;100921.41;4975944;28;20093;-91
2022/10/09 20:33:47;;;;;;;27.85;17.55;;;;;;;17.94;100.00;100927.88;4974794;28;20047;-86
2022/10/09 20:36:30;;;;;;;29.77;20.38;;;;;;;18.16;100.00;100919.72;4975897;28;20033;-88
2022/10/09 20:38:57;;;;;;;29.13;17.60;;;;;;;18.04;100.00;100922.97;4975144;28;20046;-89
2022/10/09 20:41:24;;;;;;;27.35;17.20;;;;;;;17.98;100.00;100923.78;4975828;28;20034;-86
2022/10/09 20:43:53;;;;;;;26.42;18.33;;;;;;;18.18;100.00;100925.69;4975602;28;20031;-88
2022/10/09 20:46:22;;;;;;;29.88;17.98;;;;;;;18.20;100.00;100931.69;4974056;28;20469;-88
2022/10/09 20:48:48;;;;;;;29.00;17.73;;;;;;;18.14;100.00;100927.13;4975050;28;20039;-88
2022/10/09 20:51:15;;;;;;;26.95;15.77;;;;;;;18.20;100.00;100932.50;4974308;28;20054;-89
2022/10/09 20:53:45;;;;;;;21.92;16.27;;;;;;;18.10;100.00;100932.06;4975522;28;20081;-88
2022/10/09 20:56:13;;;;;;;24.67;17.20;;;;;;;18.16;100.00;100941.19;4975832;28;20480;-88
2022/10/09 20:58:39;;;;;;;24.15;17.30;;;;;;;18.13;100.00;100933.53;4979104;28;20042;-86
2022/10/09 21:01:07;;;;;;;26.10;17.25;;;;;;;18.26;100.00;100936.28;4979260;28;20118;-86
2022/10/09 21:03:34;;;;;;;23.10;17.02;;;;;;;18.26;100.00;100937.06;4976339;28;20042;-88
2022/10/09 21:06:05;;;;;;;28.27;17.15;;;;;;;18.16;100.00;100927.78;4975229;28;20035;-88
2022/10/09 21:08:31;;;;;;;27.40;17.08;;;;;;;18.23;100.00;100934.00;4974102;28;20042;-87
2022/10/09 21:10:57;;;;;;;26.10;16.40;;;;;;;18.16;100.00;100935.81;4974841;28;20128;-85
2022/10/09 21:13:23;;;;;;;25.50;16.13;;;;;;;18.13;100.00;100934.34;4975018;28;20062;-90
2022/10/09 21:15:49;;;;;;;25.80;16.10;;;;;;;18.34;100.00;100941.44;4975291;28;20435;-85
2022/10/09 21:18:16;;;;;;;23.52;16.67;;;;;;;18.28;100.00;100934.19;4976132;28;20476;-85
2022/10/09 21:20:44;;;;;;;21.35;15.45;;;;;;;18.30;100.00;100934.81;4985278;28;20476;-88
2022/10/09 21:23:11;;;;;;;28.48;16.50;;;;;;;18.33;100.00;100932.56;4975627;28;20097;-89
2022/10/09 21:25:37;;;;;;;26.55;17.33;;;;;;;18.22;100.00;100935.84;4976845;28;20038;-88
2022/10/09 21:28:04;;;;;;;23.85;16.05;;;;;;;18.38;100.00;100934.63;4976861;28;20162;-89
2022/10/09 21:30:29;;;;;;;23.33;17.50;;;;;;;18.28;100.00;100932.34;4976917;28;20039;-89
2022/10/09 21:32:55;;;;;;;29.63;17.67;;;;;;;18.20;100.00;100926.31;4977163;28;20153;-89
2022/10/09 21:35:22;;;;;;;29.45;18.02;;;;;;;18.16;100.00;100927.78;4975977;28;20484;-87
2022/10/09 21:37:49;;;;;;;27.73;17.75;;;;;;;18.04;100.00;100928.34;4977724;28;20507;-90
2022/10/09 21:40:15;;;;;;;34.08;18.17;;;;;;;18.01;100.00;100933.28;4977516;28;20058;-88
2022/10/09 21:42:41;;;;;;;26.52;17.63;;;;;;;18.00;100.00;100945.84;4977637;28;20035;-89
2022/10/09 21:45:07;;;;;;;25.17;19.52;;;;;;;18.10;100.00;100939.31;4976843;28;20393;-88
2022/10/09 21:47:33;;;;;;;31.98;18.85;;;;;;;18.24;100.00;100938.31;4978866;28;20110;-86
2022/10/09 21:49:58;;;;;;;27.30;18.80;;;;;;;18.08;100.00;100929.59;4978841;28;20081;-89
2022/10/09 21:52:24;;;;;;;25.75;17.38;;;;;;;18.10;100.00;100933.94;4976037;28;20074;-88
2022/10/09 21:54:49;;;;;;;26.38;19.77;;;;;;;18.15;100.00;100934.16;4976093;28;20034;-87
2022/10/09 21:57:15;;;;;;;29.73;18.98;;;;;;;18.32;100.00;100936.28;4975113;28;20404;-88
2022/10/09 21:59:40;;;;;;;30.80;19.25;;;;;;;18.31;100.00;100939.16;4975075;28;20400;-86
2022/10/09 22:02:06;;;;;;;24.33;18.15;;;;;;;18.31;100.00;100939.16;4975816;28;20069;-86
2022/10/09 22:04:31;;;;;;;27.50;18.17;;;;;;;18.18;100.00;100937.25;4975381;28;20425;-86
2022/10/09 22:06:57;;;;;;;29.80;20.33;;;;;;;17.98;100.00;100934.50;4972925;28;20054;-86